ENKB/KSU METAR and TAF weather

Enter ICAO airport designator
Station Type Date Time Source
ENKB METAR 2020/03/31 21:50 UTC NOAA

ENKB 312150Z AUTO 27011KT 9999 OVC026/// 04/M00 Q1012 RMK WIND 745FT 29018KT


Station Type Date Time Source
ENKB Decoded METAR 2020/03/31 21:50 UTC NOAA

Kristiansund / Kvernberget, Norway (ENKB) 63-07N 007-50E 62M
Mar 31, 2020 - 05:50 PM EDT / 2020.03.31 2150 UTC
Wind: from the W (270 degrees) at 13 MPH (11 KT):0
Visibility: greater than 7 mile(s):0
Sky conditions: overcast
Temperature: 39 F (4 C)
Dew Point: 32 F (0 C)
Relative Humidity: 75%
Pressure (altimeter): 29.88 in. Hg (1012 hPa)
ob: ENKB 312150Z AUTO 27011KT 9999 OVC026/// 04/M00 Q1012 RMK WIND 745FT 29018KT
cycle: 22

Station Type Date Time Source
ENKB TAF 2010/02/05 07:50 UTC NOAA

METAR ENKB 050750Z 15011KT 110V200 9999 SCT055 BKN070 03/M05 Q1007

Example: see airport list